Time;durP1;ratioP1;P1;durP2;ratioP2;P2;SDS_P1;SDS_P2;PMS_P1;PMS_P2;Temp;Humidity;BMP_temperature;BMP_pressure;BME280_temperature;BME280_humidity;BME280_pressure;Samples;Min_cycle;Max_cycle;Signal;HPM_P1;HPM_P2
2023/12/31 00:00:43;;;;;;;29.38;13.48;;;;;;;6.74;81.33;99522.75;6094626;23;20072;-84
2023/12/31 00:03:10;;;;;;;31.90;14.95;;;;;;;6.77;82.10;99512.91;6143815;23;20771;-84
2023/12/31 00:05:37;;;;;;;26.38;13.50;;;;;;;6.79;82.51;99501.25;6095872;23;20022;-84
2023/12/31 00:08:04;;;;;;;30.73;14.18;;;;;;;6.70;80.76;99489.63;6143643;23;20029;-84
2023/12/31 00:10:31;;;;;;;27.27;14.07;;;;;;;6.79;81.55;99484.59;6094757;23;20672;-83
2023/12/31 00:12:58;;;;;;;28.58;13.45;;;;;;;6.68;81.77;99496.81;6095672;23;20024;-83
2023/12/31 00:15:25;;;;;;;23.92;11.85;;;;;;;6.68;81.69;99490.72;6094915;23;20017;-84
2023/12/31 00:17:51;;;;;;;31.83;12.70;;;;;;;6.73;81.05;99491.19;6142929;23;20049;-84
2023/12/31 00:20:18;;;;;;;25.90;12.13;;;;;;;6.69;80.90;99487.09;6095422;23;20104;-83
2023/12/31 00:22:45;;;;;;;24.25;10.95;;;;;;;6.71;80.68;99478.09;6071431;23;20032;-83
2023/12/31 00:25:12;;;;;;;26.65;11.15;;;;;;;6.71;80.99;99472.00;6119770;23;20484;-83
2023/12/31 00:27:41;;;;;;;22.05;10.48;;;;;;;6.77;81.05;99473.31;6143096;23;20033;-83
2023/12/31 00:30:08;;;;;;;22.20;10.38;;;;;;;6.77;80.83;99473.31;6118602;23;20366;-83
2023/12/31 00:32:35;;;;;;;22.65;10.02;;;;;;;6.72;81.19;99469.25;6119511;23;20045;-83
2023/12/31 00:35:02;;;;;;;19.70;9.60;;;;;;;6.74;81.16;99463.84;6119861;23;20037;-83
2023/12/31 00:37:29;;;;;;;18.17;9.48;;;;;;;6.70;81.14;99460.63;6070981;23;20033;-83
2023/12/31 00:39:56;;;;;;;20.42;8.57;;;;;;;6.67;81.31;99458.22;6094252;23;20341;-84
2023/12/31 00:42:23;;;;;;;22.83;9.63;;;;;;;6.60;81.20;99454.38;6094487;23;20041;-83
2023/12/31 00:44:49;;;;;;;21.08;9.73;;;;;;;6.59;80.98;99455.34;6094519;23;20112;-83
2023/12/31 00:47:16;;;;;;;22.13;9.63;;;;;;;6.50;81.43;99445.50;6094685;23;20049;-83
2023/12/31 00:49:43;;;;;;;17.80;9.38;;;;;;;6.52;81.22;99441.78;6119437;23;20021;-83
2023/12/31 00:52:10;;;;;;;23.88;11.23;;;;;;;6.51;81.21;99439.25;6070721;23;20028;-83
2023/12/31 00:54:38;;;;;;;20.23;10.48;;;;;;;6.30;81.97;99441.75;6095139;23;20025;-83
2023/12/31 00:57:05;;;;;;;22.60;10.85;;;;;;;6.42;81.33;99434.72;6118530;23;20037;-83
2023/12/31 00:59:32;;;;;;;24.85;11.18;;;;;;;6.37;81.70;99428.97;6094453;23;20049;-84
2023/12/31 01:01:59;;;;;;;21.92;12.57;;;;;;;6.36;81.26;99437.81;6094705;23;20034;-84
2023/12/31 01:04:25;;;;;;;20.55;10.10;;;;;;;6.45;81.03;99435.31;6095389;23;20024;-83
2023/12/31 01:06:52;;;;;;;21.25;10.65;;;;;;;6.46;81.17;99433.50;6094316;23;20021;-83
2023/12/31 01:09:19;;;;;;;24.60;11.55;;;;;;;6.43;80.97;99423.19;6050000;23;20513;-84
2023/12/31 01:11:46;;;;;;;22.98;10.48;;;;;;;6.34;81.16;99418.66;6094361;23;20061;-84
2023/12/31 01:14:14;;;;;;;22.92;9.88;;;;;;;6.36;81.54;99422.00;6118955;23;20017;-84
2023/12/31 01:16:41;;;;;;;18.35;9.05;;;;;;;6.33;80.72;99412.50;6119513;23;20045;-84
2023/12/31 01:19:08;;;;;;;17.73;9.32;;;;;;;6.42;81.13;99408.34;6118197;23;20052;-84
2023/12/31 01:21:35;;;;;;;16.55;8.65;;;;;;;6.38;81.36;99414.81;6066630;23;20076;-84
2023/12/31 01:24:03;;;;;;;19.77;9.35;;;;;;;6.39;81.21;99411.22;6115194;23;20438;-83
2023/12/31 01:26:29;;;;;;;15.82;8.25;;;;;;;6.34;80.72;99411.56;6094600;23;20027;-84
2023/12/31 01:28:56;;;;;;;21.00;9.52;;;;;;;6.22;80.30;99409.88;6094323;23;20104;-84
2023/12/31 01:31:24;;;;;;;23.23;10.52;;;;;;;6.25;80.27;99404.38;6094397;23;20040;-84
2023/12/31 01:33:51;;;;;;;25.73;9.32;;;;;;;6.13;80.11;99405.31;6117945;23;20021;-84
2023/12/31 01:36:20;;;;;;;22.60;10.35;;;;;;;6.22;80.14;99394.06;6093341;23;20639;-84
2023/12/31 01:38:47;;;;;;;46.67;13.63;;;;;;;6.20;81.04;99385.44;6142609;23;21756;-85
2023/12/31 01:41:14;;;;;;;28.45;12.15;;;;;;;6.16;81.19;99381.38;6094894;23;20501;-84
2023/12/31 01:43:40;;;;;;;26.70;11.82;;;;;;;6.06;81.46;99384.72;6117844;23;20052;-84
2023/12/31 01:46:09;;;;;;;30.00;12.27;;;;;;;5.94;81.28;99392.72;6046909;23;20103;-83
2023/12/31 01:48:36;;;;;;;24.70;11.75;;;;;;;5.93;81.16;99383.06;6118828;23;20092;-84
2023/12/31 01:51:03;;;;;;;27.35;12.45;;;;;;;5.94;80.71;99384.81;6094000;23;20029;-83
2023/12/31 01:53:31;;;;;;;24.67;10.85;;;;;;;5.92;80.86;99368.25;6070383;23;20454;-84
2023/12/31 01:55:58;;;;;;;22.25;11.73;;;;;;;5.94;81.19;99361.94;6094806;23;20088;-84
2023/12/31 01:58:25;;;;;;;29.50;11.85;;;;;;;5.93;80.91;99364.63;6118588;23;20044;-84
2023/12/31 02:00:52;;;;;;;25.73;10.45;;;;;;;5.88;80.63;99352.66;6070215;23;20089;-84
2023/12/31 02:03:19;;;;;;;22.88;10.88;;;;;;;5.94;80.66;99340.00;6118565;23;20053;-83
2023/12/31 02:05:47;;;;;;;18.20;9.80;;;;;;;5.86;80.60;99325.59;6094903;23;20326;-83
2023/12/31 02:08:14;;;;;;;25.10;11.00;;;;;;;5.96;80.58;99323.13;6093717;23;20056;-84
2023/12/31 02:10:41;;;;;;;19.83;10.02;;;;;;;6.01;80.42;99338.59;6094925;23;20406;-84
2023/12/31 02:13:08;;;;;;;18.42;9.77;;;;;;;6.09;80.55;99349.38;6094162;23;20033;-83
2023/12/31 02:15:34;;;;;;;21.13;10.15;;;;;;;6.03;80.56;99341.91;6118925;23;20481;-84
2023/12/31 02:18:02;;;;;;;15.10;8.40;;;;;;;5.99;80.34;99341.31;6050591;23;20025;-84
2023/12/31 02:20:30;;;;;;;16.98;8.88;;;;;;;5.97;80.54;99339.75;6142854;23;20029;-84
2023/12/31 02:22:57;;;;;;;17.95;8.15;;;;;;;5.96;80.34;99341.56;6091527;23;20021;-84
2023/12/31 02:25:27;;;;;;;18.38;7.63;;;;;;;5.93;80.15;99328.59;6089507;23;20351;-83
2023/12/31 02:27:54;;;;;;;20.58;9.70;;;;;;;5.91;79.61;99322.59;6042290;23;20594;-84
2023/12/31 02:30:22;;;;;;;20.15;10.13;;;;;;;5.84;79.89;99308.22;6114151;23;20059;-84
2023/12/31 02:32:49;;;;;;;23.10;9.43;;;;;;;5.84;79.96;99293.25;6089332;23;20046;-84
2023/12/31 02:35:16;;;;;;;17.60;9.85;;;;;;;5.86;79.73;99285.22;6045925;23;22511;-85
2023/12/31 02:37:44;;;;;;;18.73;9.63;;;;;;;5.79;79.30;99278.75;6066908;23;20097;-84
2023/12/31 02:40:10;;;;;;;20.27;9.45;;;;;;;5.75;79.83;99279.94;6088184;23;20379;-84
2023/12/31 02:42:37;;;;;;;19.90;9.02;;;;;;;5.68;79.69;99260.31;6092542;23;20032;-83
2023/12/31 02:45:04;;;;;;;21.02;8.90;;;;;;;5.71;80.21;99260.09;6118237;23;20018;-83
2023/12/31 02:47:31;;;;;;;16.10;9.07;;;;;;;5.69;80.44;99252.28;6094457;23;20028;-83
2023/12/31 02:49:58;;;;;;;26.65;9.45;;;;;;;5.68;80.38;99255.06;6118587;23;20021;-84
2023/12/31 02:52:25;;;;;;;21.77;9.25;;;;;;;5.68;80.20;99249.78;6041062;23;20025;-84
2023/12/31 02:54:52;;;;;;;14.98;7.75;;;;;;;5.73;80.43;99259.00;6089637;23;20029;-84
2023/12/31 02:57:19;;;;;;;16.75;8.68;;;;;;;5.70;80.52;99245.22;6089100;23;20573;-83
2023/12/31 02:59:46;;;;;;;15.63;8.25;;;;;;;5.63;80.86;99245.69;6070590;23;20026;-83
2023/12/31 03:02:13;;;;;;;17.92;9.10;;;;;;;5.64;81.07;99234.19;6094454;23;20029;-84
2023/12/31 03:04:40;;;;;;;16.42;8.80;;;;;;;5.76;80.74;99239.47;6072667;23;20029;-84
2023/12/31 03:07:08;;;;;;;27.10;9.00;;;;;;;5.62;80.72;99236.13;6119839;23;20025;-84
2023/12/31 03:09:35;;;;;;;14.52;8.95;;;;;;;5.67;80.42;99227.84;6119549;23;20018;-83
2023/12/31 03:12:02;;;;;;;22.52;10.75;;;;;;;5.59;80.47;99227.63;6144507;23;20022;-83
2023/12/31 03:14:29;;;;;;;23.77;11.13;;;;;;;5.57;80.50;99216.34;6072080;23;20104;-84
2023/12/31 03:16:57;;;;;;;26.55;11.65;;;;;;;5.51;80.86;99222.13;6095226;23;20025;-84
2023/12/31 03:19:24;;;;;;;20.60;9.98;;;;;;;5.51;80.13;99217.69;6120377;23;20072;-84
2023/12/31 03:21:51;;;;;;;17.63;9.48;;;;;;;5.51;80.48;99219.47;6042742;23;20093;-84
2023/12/31 03:24:20;;;;;;;21.95;11.05;;;;;;;5.46;81.41;99211.09;6090464;23;20434;-84
2023/12/31 03:26:47;;;;;;;21.85;11.25;;;;;;;5.51;81.07;99201.88;6090178;23;20026;-84
2023/12/31 03:29:14;;;;;;;23.70;11.27;;;;;;;5.47;80.77;99204.88;6117639;23;20080;-84
2023/12/31 03:31:41;;;;;;;19.73;11.43;;;;;;;5.47;80.92;99202.22;6090759;23;20049;-84
2023/12/31 03:34:08;;;;;;;20.83;10.27;;;;;;;5.52;80.90;99194.81;6049154;23;20475;-84
2023/12/31 03:36:35;;;;;;;22.58;10.30;;;;;;;5.53;81.20;99184.16;6095893;23;20049;-84
2023/12/31 03:39:02;;;;;;;22.45;11.20;;;;;;;5.54;81.23;99179.72;6094299;23;20017;-84
2023/12/31 03:41:29;;;;;;;23.08;10.50;;;;;;;5.48;81.99;99169.69;6070702;23;20030;-85
2023/12/31 03:43:56;;;;;;;18.88;9.57;;;;;;;5.52;81.24;99164.06;6094566;23;20029;-83
2023/12/31 03:46:23;;;;;;;26.30;10.75;;;;;;;5.60;81.12;99151.13;6142657;23;20454;-84
2023/12/31 03:48:50;;;;;;;15.93;9.05;;;;;;;5.57;81.04;99147.88;6144979;23;20366;-84
2023/12/31 03:51:17;;;;;;;21.17;9.60;;;;;;;5.44;81.89;99163.81;6066445;23;20022;-84
2023/12/31 03:53:43;;;;;;;16.55;9.20;;;;;;;5.53;81.84;99165.72;6090093;23;20502;-84
2023/12/31 03:56:10;;;;;;;18.30;8.13;;;;;;;5.66;81.83;99169.06;6067840;23;20057;-84
2023/12/31 03:58:37;;;;;;;16.48;7.97;;;;;;;5.66;82.33;99153.28;6118165;23;20018;-84
2023/12/31 04:01:04;;;;;;;17.55;7.57;;;;;;;5.69;82.61;99159.25;6066152;23;20095;-85
2023/12/31 04:03:32;;;;;;;17.33;8.15;;;;;;;5.68;82.48;99149.69;6114577;23;20021;-83
2023/12/31 04:05:59;;;;;;;15.52;7.22;;;;;;;5.66;82.04;99147.16;6091629;23;20637;-84
2023/12/31 04:08:25;;;;;;;16.90;7.18;;;;;;;5.74;81.50;99133.38;6093250;23;20542;-83
2023/12/31 04:10:52;;;;;;;12.27;7.13;;;;;;;5.77;81.60;99127.88;6071771;23;20037;-84
2023/12/31 04:13:19;;;;;;;13.43;7.05;;;;;;;5.67;82.34;99133.03;6143831;23;20045;-84
2023/12/31 04:15:46;;;;;;;21.40;6.88;;;;;;;5.68;82.76;99118.09;6094994;23;20029;-84
2023/12/31 04:18:13;;;;;;;13.00;7.25;;;;;;;5.69;83.29;99107.41;6095104;23;20430;-84
2023/12/31 04:20:39;;;;;;;13.02;6.90;;;;;;;5.69;83.03;99115.31;6118790;23;20022;-84
2023/12/31 04:23:07;;;;;;;18.55;7.10;;;;;;;5.74;82.93;99115.78;6094711;23;20018;-83
2023/12/31 04:25:33;;;;;;;16.40;7.65;;;;;;;5.69;83.19;99101.31;6119109;23;20379;-84
2023/12/31 04:28:00;;;;;;;16.23;7.50;;;;;;;5.77;83.28;99106.78;6119300;23;20021;-85
2023/12/31 04:30:27;;;;;;;14.07;7.35;;;;;;;5.81;82.83;99101.16;6119336;23;20679;-83
2023/12/31 04:32:54;;;;;;;15.00;7.65;;;;;;;5.76;83.36;99099.88;6095530;23;20014;-84
2023/12/31 04:35:21;;;;;;;13.98;6.93;;;;;;;5.75;83.47;99087.63;6118553;23;20088;-84
2023/12/31 04:37:48;;;;;;;14.63;6.90;;;;;;;5.76;83.30;99094.59;6043821;23;20014;-84
2023/12/31 04:40:15;;;;;;;16.05;6.90;;;;;;;5.76;83.88;99086.69;6065134;23;20077;-84
2023/12/31 04:42:41;;;;;;;15.85;6.55;;;;;;;5.86;83.22;99085.81;6092395;23;22192;-86
2023/12/31 04:45:09;;;;;;;15.18;7.80;;;;;;;5.82;83.16;99089.66;6095459;23;20076;-84
2023/12/31 04:47:36;;;;;;;15.65;7.30;;;;;;;5.81;82.83;99071.34;6094471;23;20445;-84
2023/12/31 04:50:05;;;;;;;14.43;7.22;;;;;;;5.84;82.78;99079.00;6070198;23;20076;-84
2023/12/31 04:52:32;;;;;;;15.43;6.88;;;;;;;5.76;82.32;99071.72;6094535;23;20045;-83
2023/12/31 04:54:59;;;;;;;15.20;7.15;;;;;;;5.67;81.91;99072.44;6094742;23;20020;-84
2023/12/31 04:57:26;;;;;;;10.40;6.50;;;;;;;5.73;82.47;99079.88;6118868;23;20030;-84
2023/12/31 04:59:52;;;;;;;16.77;7.72;;;;;;;5.65;83.03;99075.22;6095178;23;20021;-83
2023/12/31 05:02:19;;;;;;;16.23;6.80;;;;;;;5.69;83.46;99072.34;6118214;23;20049;-83
2023/12/31 05:04:46;;;;;;;13.82;6.68;;;;;;;5.66;84.02;99076.06;6095067;23;20044;-84
2023/12/31 05:07:14;;;;;;;14.35;7.35;;;;;;;5.74;83.55;99067.53;6095087;23;20463;-83
2023/12/31 05:09:40;;;;;;;13.18;6.65;;;;;;;5.63;83.61;99065.78;6118208;23;20036;-84
2023/12/31 05:12:07;;;;;;;16.88;7.07;;;;;;;5.66;83.32;99062.88;6118673;23;20055;-84
2023/12/31 05:14:34;;;;;;;14.50;7.32;;;;;;;5.60;84.20;99058.94;6143855;23;20072;-84
2023/12/31 05:17:01;;;;;;;15.68;7.32;;;;;;;5.56;84.16;99062.78;6070060;23;20021;-84
2023/12/31 05:19:28;;;;;;;16.13;7.63;;;;;;;5.63;83.37;99061.34;6142137;23;20105;-83
2023/12/31 05:21:55;;;;;;;18.83;7.15;;;;;;;5.65;83.85;99059.41;6118652;23;20484;-83
2023/12/31 05:24:22;;;;;;;14.82;7.50;;;;;;;5.61;84.58;99057.16;6118387;23;20028;-84
2023/12/31 05:26:48;;;;;;;15.77;7.15;;;;;;;5.64;83.92;99059.53;6119011;23;20029;-83
2023/12/31 05:29:15;;;;;;;15.63;7.65;;;;;;;5.66;84.21;99058.44;6094475;23;20022;-84
2023/12/31 05:31:42;;;;;;;18.17;8.05;;;;;;;5.68;84.38;99052.25;6070622;23;20024;-84
2023/12/31 05:34:09;;;;;;;16.02;7.70;;;;;;;5.66;84.50;99033.91;6070838;23;20080;-83
2023/12/31 05:36:36;;;;;;;15.50;7.40;;;;;;;5.57;84.59;99035.50;6070436;23;20029;-84
2023/12/31 05:39:02;;;;;;;16.67;8.98;;;;;;;5.64;84.69;99041.94;6117534;23;20345;-83
2023/12/31 05:41:29;;;;;;;13.50;6.47;;;;;;;5.73;84.86;99035.09;6095048;23;20018;-83
2023/12/31 05:43:56;;;;;;;13.82;6.75;;;;;;;5.74;84.99;99025.38;6117812;23;20051;-84
2023/12/31 05:46:23;;;;;;;14.98;6.93;;;;;;;5.67;85.56;99011.88;6118329;23;20115;-84
2023/12/31 05:48:50;;;;;;;15.10;7.80;;;;;;;5.70;85.32;99005.50;6143501;23;20017;-84
2023/12/31 05:51:17;;;;;;;12.93;7.07;;;;;;;5.70;85.62;99008.16;6094018;23;20341;-83
2023/12/31 05:53:44;;;;;;;14.98;7.35;;;;;;;5.62;86.71;99006.13;6094585;23;20017;-83
2023/12/31 05:56:10;;;;;;;13.32;8.75;;;;;;;5.66;86.80;98989.97;6094377;23;20030;-83
2023/12/31 05:58:37;;;;;;;14.57;7.47;;;;;;;5.73;86.41;98997.38;6094208;23;20017;-84
2023/12/31 06:01:04;;;;;;;14.93;7.15;;;;;;;5.73;85.91;98987.69;6117752;23;20354;-83
2023/12/31 06:03:31;;;;;;;12.82;6.75;;;;;;;5.76;85.30;98991.84;6118379;23;20065;-83
2023/12/31 06:05:59;;;;;;;11.05;6.25;;;;;;;5.74;85.46;98986.69;6141837;23;20088;-83
2023/12/31 06:08:26;;;;;;;12.82;6.90;;;;;;;5.75;85.15;98993.66;6094249;23;20021;-83
2023/12/31 06:10:54;;;;;;;11.98;6.35;;;;;;;5.79;85.23;98981.06;6118607;23;20442;-84
2023/12/31 06:13:21;;;;;;;13.70;6.40;;;;;;;5.74;85.50;98981.44;6118439;23;20024;-84
2023/12/31 06:15:48;;;;;;;15.68;6.25;;;;;;;5.83;85.46;98993.03;6070614;23;20014;-83
2023/12/31 06:18:14;;;;;;;10.98;5.47;;;;;;;5.78;86.12;98987.31;6093879;23;20481;-84
2023/12/31 06:20:41;;;;;;;13.20;5.80;;;;;;;5.75;86.46;98988.41;6117645;23;20024;-83
2023/12/31 06:23:08;;;;;;;10.77;5.93;;;;;;;5.78;86.50;98990.78;6095134;23;20577;-84
2023/12/31 06:25:35;;;;;;;10.63;5.80;;;;;;;5.78;86.63;98989.94;6070645;23;20032;-84
2023/12/31 06:28:02;;;;;;;9.40;5.32;;;;;;;5.75;87.40;98985.75;6093072;23;20030;-84
2023/12/31 06:30:28;;;;;;;12.73;6.07;;;;;;;5.77;86.54;98986.44;6094370;23;20737;-83
2023/12/31 06:32:55;;;;;;;13.02;6.13;;;;;;;5.77;86.45;98986.44;6143111;23;20043;-84
2023/12/31 06:35:22;;;;;;;11.00;7.00;;;;;;;5.74;86.90;98994.59;6118343;23;20087;-86
2023/12/31 06:37:49;;;;;;;13.60;6.90;;;;;;;5.73;86.63;99000.03;6120468;23;20033;-84
2023/12/31 06:40:16;;;;;;;13.82;6.35;;;;;;;5.59;87.43;98999.31;6143577;23;20018;-84
2023/12/31 06:42:43;;;;;;;10.73;6.30;;;;;;;5.62;87.75;98991.19;6072699;23;20474;-84
2023/12/31 06:45:10;;;;;;;12.43;5.93;;;;;;;5.61;87.76;98996.56;6120042;23;20033;-83
2023/12/31 06:47:36;;;;;;;12.55;6.18;;;;;;;5.68;87.80;98994.28;6119843;23;20084;-84
2023/12/31 06:50:04;;;;;;;11.52;5.65;;;;;;;5.69;87.54;98999.41;6043771;23;20481;-83
2023/12/31 06:52:31;;;;;;;12.82;6.15;;;;;;;5.67;87.95;98996.06;6091108;23;20026;-83
2023/12/31 06:54:58;;;;;;;14.80;7.57;;;;;;;5.66;88.03;98997.03;6114877;23;20582;-84
2023/12/31 06:57:25;;;;;;;13.80;7.43;;;;;;;5.71;87.73;98999.31;6091087;23;20071;-83
2023/12/31 06:59:51;;;;;;;13.75;7.05;;;;;;;5.73;87.59;98994.75;6114399;23;20022;-83
2023/12/31 07:02:19;;;;;;;13.23;7.25;;;;;;;5.73;87.54;98989.47;6090693;23;20026;-84
2023/12/31 07:04:46;;;;;;;13.25;6.85;;;;;;;5.70;87.84;98989.72;6067536;23;20450;-84
2023/12/31 07:07:13;;;;;;;13.63;7.25;;;;;;;5.68;87.89;98989.03;6114437;23;20021;-84
2023/12/31 07:09:39;;;;;;;15.52;7.72;;;;;;;5.58;89.14;98979.22;6093778;23;20097;-85
2023/12/31 07:12:06;;;;;;;16.48;9.82;;;;;;;5.62;88.91;98982.44;6068386;23;20026;-83
2023/12/31 07:14:33;;;;;;;17.05;8.90;;;;;;;5.64;88.98;98980.53;6115228;23;20018;-84
2023/12/31 07:17:00;;;;;;;14.35;7.78;;;;;;;5.69;87.97;98974.88;6047081;23;20022;-83
2023/12/31 07:19:27;;;;;;;17.05;8.13;;;;;;;5.64;87.96;98968.19;6071038;23;20053;-83
2023/12/31 07:21:54;;;;;;;14.23;6.97;;;;;;;5.64;88.82;98972.63;6090597;23;20097;-83
2023/12/31 07:24:21;;;;;;;10.75;7.13;;;;;;;5.69;88.64;98966.97;6093096;23;20025;-83
2023/12/31 07:26:48;;;;;;;25.67;12.55;;;;;;;5.65;88.87;98969.88;6095479;23;20493;-84
2023/12/31 07:29:15;;;;;;;23.20;12.30;;;;;;;5.68;89.14;98963.50;6095124;23;20048;-83
2023/12/31 07:31:42;;;;;;;21.98;11.93;;;;;;;5.61;89.95;98964.97;6119987;23;20048;-83
2023/12/31 07:34:09;;;;;;;24.23;13.32;;;;;;;5.68;89.53;98970.59;6096122;23;20036;-84
2023/12/31 07:36:36;;;;;;;25.30;14.25;;;;;;;5.58;90.60;98971.31;6119592;23;20354;-84
2023/12/31 07:39:03;;;;;;;17.98;9.38;;;;;;;5.60;90.38;98963.31;6095047;23;20024;-83
2023/12/31 07:41:31;;;;;;;17.60;9.23;;;;;;;5.60;89.64;98973.84;6066867;23;20339;-83
2023/12/31 07:43:58;;;;;;;15.15;8.43;;;;;;;5.63;89.53;98974.41;6114561;23;20044;-83
2023/12/31 07:46:25;;;;;;;23.25;10.43;;;;;;;5.66;89.82;98973.34;6115572;23;20022;-83
2023/12/31 07:48:52;;;;;;;17.98;8.65;;;;;;;5.66;89.42;98968.91;6119627;23;20025;-84
2023/12/31 07:51:19;;;;;;;15.43;8.27;;;;;;;5.59;90.42;98972.16;6119667;23;20049;-84
2023/12/31 07:53:46;;;;;;;18.00;9.02;;;;;;;5.63;90.52;98960.41;6095941;23;20088;-83
2023/12/31 07:56:13;;;;;;;17.13;8.63;;;;;;;5.58;90.64;98960.78;6119158;23;20528;-83
2023/12/31 07:58:40;;;;;;;17.15;9.00;;;;;;;5.61;90.32;98965.81;6071771;23;20021;-84
2023/12/31 08:01:06;;;;;;;19.52;7.78;;;;;;;5.60;90.25;98936.97;6119469;23;20014;-83
2023/12/31 08:03:33;;;;;;;13.48;7.57;;;;;;;5.66;89.83;98962.78;6070819;23;20021;-83
2023/12/31 08:06:01;;;;;;;18.05;7.85;;;;;;;5.61;90.53;98951.81;6094903;23;20021;-85
2023/12/31 08:08:28;;;;;;;19.42;9.70;;;;;;;5.66;90.08;98952.25;6120483;23;20014;-83
2023/12/31 08:10:55;;;;;;;18.90;8.10;;;;;;;5.68;89.89;98960.88;6119534;23;20053;-84
2023/12/31 08:13:22;;;;;;;15.35;7.65;;;;;;;5.70;90.25;98958.09;6070477;23;20100;-84
2023/12/31 08:15:48;;;;;;;19.88;9.23;;;;;;;5.69;90.12;98935.38;6119641;23;20026;-84
2023/12/31 08:18:15;;;;;;;14.68;7.63;;;;;;;5.71;89.78;98954.53;6118837;23;20108;-84
2023/12/31 08:20:42;;;;;;;14.85;7.63;;;;;;;5.69;89.87;98933.56;6094793;23;20029;-83
2023/12/31 08:23:09;;;;;;;14.15;7.78;;;;;;;5.66;90.65;98953.09;6143618;23;20028;-84
2023/12/31 08:25:36;;;;;;;18.30;8.25;;;;;;;5.73;90.71;98937.63;6071255;23;20026;-84
2023/12/31 08:28:04;;;;;;;18.15;8.20;;;;;;;5.70;91.17;98924.72;6093657;23;23812;-83
2023/12/31 08:30:32;;;;;;;16.40;8.60;;;;;;;5.71;91.00;98922.91;6094744;23;20021;-83
2023/12/31 08:33:00;;;;;;;17.50;8.73;;;;;;;5.75;90.49;98929.59;6042586;23;20018;-83
2023/12/31 08:35:26;;;;;;;13.98;8.35;;;;;;;5.73;91.11;98928.91;6045861;23;20025;-85
2023/12/31 08:37:53;;;;;;;17.63;8.88;;;;;;;5.73;91.60;98921.00;6069277;23;20018;-83
2023/12/31 08:40:20;;;;;;;29.40;12.10;;;;;;;5.71;92.04;98922.91;6113178;23;20029;-84
2023/12/31 08:42:47;;;;;;;24.90;12.15;;;;;;;5.80;91.16;98925.63;6043503;23;20101;-84
2023/12/31 08:45:14;;;;;;;24.75;11.93;;;;;;;5.84;91.08;98919.13;6042522;23;20018;-83
2023/12/31 08:47:41;;;;;;;26.70;12.63;;;;;;;5.76;92.50;98920.72;6041227;23;20026;-84
2023/12/31 08:50:09;;;;;;;27.50;11.68;;;;;;;5.77;92.00;98915.31;6042372;23;20470;-84
2023/12/31 08:52:43;;;;;;;23.17;9.98;;;;;;;5.76;91.73;98920.72;6118895;23;20088;-83
2023/12/31 08:55:09;;;;;;;20.00;9.55;;;;;;;5.78;91.46;98919.66;6094507;23;20080;-84
2023/12/31 08:57:44;;;;;;;16.73;10.18;;;;;;;5.80;91.03;98919.50;6143503;23;20200;-83
2023/12/31 09:00:12;;;;;;;17.58;9.55;;;;;;;5.82;91.69;98920.22;6141474;23;20017;-84
2023/12/31 09:02:38;;;;;;;23.80;10.55;;;;;;;5.87;91.50;98923.28;6095215;23;20323;-83
2023/12/31 09:05:05;;;;;;;19.23;10.32;;;;;;;5.84;91.86;98919.13;6119219;23;20025;-83
2023/12/31 09:07:36;;;;;;;25.83;12.15;;;;;;;5.81;92.18;98915.91;6094340;23;20348;-84
2023/12/31 09:10:03;;;;;;;26.70;11.98;;;;;;;5.90;91.42;98916.94;6118504;23;20052;-84
2023/12/31 09:12:31;;;;;;;30.50;13.80;;;;;;;5.91;92.36;98910.72;6093935;23;20021;-83
2023/12/31 09:14:57;;;;;;;30.45;14.32;;;;;;;5.94;92.57;98916.59;6093760;23;20031;-83
2023/12/31 09:17:24;;;;;;;34.05;16.67;;;;;;;5.99;92.84;98911.75;6092312;23;20590;-84
2023/12/31 09:19:53;;;;;;;33.50;15.43;;;;;;;6.04;93.01;98911.38;6118641;23;20013;-83
2023/12/31 09:22:21;;;;;;;31.88;15.25;;;;;;;6.06;93.15;98896.28;6072098;23;20056;-82
2023/12/31 09:24:50;;;;;;;28.90;14.07;;;;;;;6.08;93.06;98897.81;6096681;23;20419;-82
2023/12/31 09:27:20;;;;;;;27.45;14.30;;;;;;;6.08;93.34;98895.19;6096232;23;20029;-82
2023/12/31 09:29:47;;;;;;;27.15;14.18;;;;;;;6.12;93.20;98898.38;6096456;23;20402;-83
2023/12/31 09:32:14;;;;;;;25.58;14.70;;;;;;;6.14;92.75;98888.56;6096420;23;20453;-82
2023/12/31 09:34:41;;;;;;;35.63;18.17;;;;;;;6.16;92.55;98886.63;6120792;23;20383;-83
2023/12/31 09:37:08;;;;;;;33.55;16.80;;;;;;;6.15;92.74;98873.56;6119835;23;20083;-84
2023/12/31 09:39:36;;;;;;;43.75;20.65;;;;;;;6.17;92.69;98875.09;6120446;23;20020;-83
2023/12/31 09:42:10;;;;;;;59.47;24.02;;;;;;;6.17;92.64;98876.91;6095654;23;20017;-83
2023/12/31 09:44:37;;;;;;;47.67;19.13;;;;;;;6.20;92.73;98879.28;6095433;23;20446;-83
2023/12/31 09:47:08;;;;;;;32.30;14.30;;;;;;;6.19;92.55;98867.91;6119546;23;20053;-83
2023/12/31 09:49:39;;;;;;;26.10;12.65;;;;;;;6.20;92.95;98869.56;6120079;23;20362;-85
2023/12/31 09:52:07;;;;;;;39.97;14.60;;;;;;;6.21;92.97;98865.16;6093841;23;20438;-84
2023/12/31 09:54:39;;;;;;;112.65;31.17;;;;;;;6.24;93.30;98872.78;6070012;23;20025;-85
2023/12/31 09:57:07;;;;;;;89.25;27.15;;;;;;;6.25;93.72;98854.19;6118188;23;20026;-84
2023/12/31 09:59:33;;;;;;;56.53;20.13;;;;;;;6.28;93.64;98843.41;6072003;23;20048;-82
2023/12/31 10:02:03;;;;;;;41.60;17.45;;;;;;;6.32;93.52;98828.13;6096867;23;20022;-82
2023/12/31 10:04:31;;;;;;;43.45;16.10;;;;;;;6.36;93.65;98828.69;6071385;23;20089;-82
2023/12/31 10:06:58;;;;;;;39.95;14.10;;;;;;;6.40;93.80;98823.03;6142101;23;20029;-84
2023/12/31 10:09:29;;;;;;;25.73;11.95;;;;;;;6.44;93.87;98823.59;6141683;23;20033;-84
2023/12/31 10:12:00;;;;;;;24.00;9.98;;;;;;;6.48;93.60;98815.25;6096599;23;20048;-84
2023/12/31 10:14:28;;;;;;;18.05;8.90;;;;;;;6.51;93.43;98808.88;6072745;23;20026;-82
2023/12/31 10:16:55;;;;;;;23.58;8.75;;;;;;;6.54;93.24;98803.38;6144588;23;20025;-86
2023/12/31 10:19:23;;;;;;;17.05;8.95;;;;;;;6.55;93.09;98791.84;6144542;23;20021;-84
2023/12/31 10:21:50;;;;;;;14.90;8.70;;;;;;;6.58;93.04;98788.91;6096222;23;20032;-86
2023/12/31 10:24:26;;;;;;;15.70;7.80;;;;;;;6.60;93.10;98788.78;6119937;23;20029;-85
2023/12/31 10:26:54;;;;;;;17.58;7.63;;;;;;;6.64;92.85;98774.34;6096447;23;20350;-82
2023/12/31 10:29:21;;;;;;;17.15;7.75;;;;;;;6.66;92.41;98767.97;6096090;23;20022;-83
2023/12/31 10:31:48;;;;;;;13.93;7.28;;;;;;;6.69;92.22;98761.59;6092541;23;20470;-83
2023/12/31 10:34:18;;;;;;;13.75;6.90;;;;;;;6.72;92.45;98748.97;6069840;23;20041;-83
2023/12/31 10:36:46;;;;;;;9.65;5.65;;;;;;;6.73;92.29;98745.34;6096148;23;20092;-85
2023/12/31 10:39:27;;;;;;;13.15;7.00;;;;;;;6.73;92.71;98747.97;6090014;23;20092;-85
2023/12/31 10:41:58;;;;;;;15.80;7.68;;;;;;;6.77;92.37;98743.28;6119960;23;20026;-84
2023/12/31 10:44:26;;;;;;;16.55;7.10;;;;;;;6.79;92.08;98737.84;6119564;23;20108;-86
2023/12/31 10:46:57;;;;;;;13.95;6.80;;;;;;;6.80;91.94;98732.44;6119106;23;20033;-86
2023/12/31 10:49:27;;;;;;;14.52;6.55;;;;;;;6.83;91.78;98733.97;6072737;23;20449;-81
2023/12/31 10:51:54;;;;;;;11.77;7.00;;;;;;;6.85;91.76;98721.47;6145941;23;20033;-82
2023/12/31 10:54:39;;;;;;;14.65;7.47;;;;;;;6.85;91.27;98714.38;6097580;23;20021;-82
2023/12/31 10:57:06;;;;;;;13.05;6.32;;;;;;;6.88;91.57;98711.47;6096547;23;20449;-82
2023/12/31 10:59:36;;;;;;;17.00;8.05;;;;;;;6.90;91.41;98708.69;6069934;23;20398;-82
2023/12/31 11:02:06;;;;;;;13.40;6.90;;;;;;;6.92;91.15;98698.81;6046014;23;20517;-82
2023/12/31 11:04:34;;;;;;;16.35;6.90;;;;;;;6.92;91.18;98688.25;6099483;23;20341;-81
2023/12/31 11:07:05;;;;;;;16.30;6.72;;;;;;;6.92;90.74;98686.47;6134630;23;20092;-82
2023/12/31 11:09:37;;;;;;;16.45;6.53;;;;;;;6.93;90.83;98672.28;6080374;23;20054;-85
2023/12/31 11:12:05;;;;;;;20.45;7.90;;;;;;;6.96;90.93;98669.38;6120557;23;20017;-84
2023/12/31 11:14:33;;;;;;;15.45;7.82;;;;;;;6.98;91.03;98671.88;6094408;23;20024;-81
2023/12/31 11:17:29;;;;;;;18.40;9.05;;;;;;;6.98;90.95;98673.69;6122266;23;20084;-81
2023/12/31 11:20:26;;;;;;;16.13;7.20;;;;;;;7.01;90.85;98674.22;6096633;23;20018;-84
2023/12/31 11:23:04;;;;;;;14.88;7.32;;;;;;;7.00;90.51;98669.09;6093493;23;20691;-86
2023/12/31 11:25:31;;;;;;;18.15;7.60;;;;;;;7.00;90.57;98700.78;6085203;23;20017;-85
2023/12/31 11:27:58;;;;;;;16.55;7.38;;;;;;;7.01;90.59;98766.59;6059499;23;20014;-86
2023/12/31 11:30:45;;;;;;;17.55;7.65;;;;;;;6.98;90.75;98826.75;6080709;23;20028;-85
2023/12/31 11:33:17;;;;;;;12.43;6.00;;;;;;;7.01;90.86;98824.66;6089991;23;20094;-84